createdAt,value
2022-12-23T00:03:15.687Z,9.37
2022-12-23T00:07:18.769Z,9.49
2022-12-23T00:11:22.307Z,9.73
2022-12-23T00:15:25.754Z,9.69
2022-12-23T00:19:28.813Z,9.55
2022-12-23T00:23:37.227Z,9.95
2022-12-23T00:28:03.807Z,10.26
2022-12-23T00:32:08.367Z,9.97
2022-12-23T00:36:40.040Z,10.40
2022-12-23T00:41:14.249Z,10.39
2022-12-23T00:45:22.809Z,10.28
2022-12-23T00:49:50.187Z,10.35
2022-12-23T00:54:03.156Z,10.42
2022-12-23T00:58:09.995Z,10.28
2022-12-23T01:02:35.791Z,10.04
2022-12-23T01:06:58.163Z,10.15
2022-12-23T01:11:13.690Z,9.95
2022-12-23T01:15:19.884Z,9.91
2022-12-23T01:19:23.894Z,9.90
2022-12-23T01:23:33.499Z,9.69
2022-12-23T01:27:42.748Z,9.77
2022-12-23T01:31:53.369Z,9.70
2022-12-23T01:36:06.163Z,9.85
2022-12-23T01:40:20.625Z,9.77
2022-12-23T01:45:00.716Z,9.64
2022-12-23T01:49:12.309Z,9.57
2022-12-23T01:53:39.359Z,9.38
2022-12-23T01:57:51.775Z,9.75
2022-12-23T02:02:29.141Z,9.63
2022-12-23T02:07:02.221Z,9.64
2022-12-23T02:11:29.322Z,9.73
2022-12-23T02:16:01.622Z,9.69
2022-12-23T02:20:34.333Z,9.62
2022-12-23T02:25:10.562Z,9.58
2022-12-23T02:29:45.679Z,9.60
2022-12-23T02:34:06.161Z,9.62
2022-12-23T02:38:20.982Z,9.49
2022-12-23T02:42:29.994Z,9.49
2022-12-23T02:46:39.021Z,9.14
2022-12-23T02:50:56.506Z,9.36
2022-12-23T02:55:07.063Z,9.23
2022-12-23T02:59:19.877Z,9.23
2022-12-23T03:03:34.359Z,8.98
2022-12-23T03:07:42.070Z,8.90
2022-12-23T03:11:52.342Z,9.33
2022-12-23T03:16:08.959Z,9.24
2022-12-23T03:20:18.477Z,9.27
2022-12-23T03:24:47.070Z,9.26
2022-12-23T03:28:56.184Z,9.26
2022-12-23T03:33:03.629Z,9.24
2022-12-23T03:37:09.813Z,9.06
2022-12-23T03:41:19.232Z,8.75
2022-12-23T03:45:40.684Z,9.01
2022-12-23T03:49:52.236Z,9.05
2022-12-23T03:54:04.155Z,9.19
2022-12-23T03:58:15.976Z,9.33
2022-12-23T04:02:24.110Z,9.31
2022-12-23T04:06:31.037Z,9.33
2022-12-23T04:10:45.201Z,9.35
2022-12-23T04:14:53.647Z,9.24
2022-12-23T04:18:58.242Z,9.35
2022-12-23T04:23:02.153Z,9.32
2022-12-23T04:27:05.761Z,9.40
2022-12-23T04:31:36.206Z,9.24
2022-12-23T04:35:43.519Z,9.12
2022-12-23T04:39:51.208Z,9.09
2022-12-23T04:43:58.163Z,9.16
2022-12-23T04:48:06.927Z,9.19
2022-12-23T04:52:18.777Z,9.33
2022-12-23T04:56:26.470Z,9.35
2022-12-23T05:00:40.072Z,9.28
2022-12-23T05:04:53.780Z,9.29
2022-12-23T05:09:03.401Z,9.29
2022-12-23T05:13:09.003Z,9.01
2022-12-23T05:17:16.479Z,9.24
2022-12-23T05:21:27.869Z,9.17
2022-12-23T05:25:37.038Z,8.69
2022-12-23T05:29:48.016Z,8.98
2022-12-23T05:33:53.527Z,8.99
2022-12-23T05:38:11.552Z,9.08
2022-12-23T05:42:26.920Z,9.07
2022-12-23T05:46:33.003Z,9.09
2022-12-23T05:50:38.146Z,9.03
2022-12-23T05:54:44.440Z,9.12
2022-12-23T05:58:51.960Z,9.16
2022-12-23T06:02:57.246Z,8.93
2022-12-23T06:07:05.648Z,9.16
2022-12-23T06:11:13.051Z,9.11
2022-12-23T06:15:26.835Z,9.14
2022-12-23T06:19:41.938Z,9.19
2022-12-23T06:23:49.135Z,9.22
2022-12-23T06:27:53.442Z,9.10
2022-12-23T06:32:01.879Z,9.10
2022-12-23T06:36:10.126Z,9.03
2022-12-23T06:40:20.908Z,9.06
2022-12-23T06:44:25.675Z,8.77
2022-12-23T06:48:29.051Z,8.65
2022-12-23T06:52:58.742Z,8.74
2022-12-23T06:57:27.675Z,8.85
2022-12-23T07:01:35.812Z,8.95
2022-12-23T07:05:50.230Z,8.84
2022-12-23T07:09:54.040Z,8.45
2022-12-23T07:14:13.803Z,8.80
2022-12-23T07:18:32.141Z,8.72
2022-12-23T07:22:47.512Z,8.56
2022-12-23T07:26:56.110Z,8.72
2022-12-23T07:30:59.356Z,8.63
2022-12-23T07:35:09.624Z,8.51
2022-12-23T07:39:47.756Z,8.49
2022-12-23T07:43:51.391Z,8.47
2022-12-23T07:47:55.163Z,8.63
2022-12-23T07:52:09.451Z,8.58
2022-12-23T07:56:12.778Z,8.61
2022-12-23T08:00:17.355Z,8.63
2022-12-23T08:04:36.618Z,8.58
2022-12-23T08:08:44.471Z,8.67
2022-12-23T08:13:02.122Z,8.84
2022-12-23T08:17:11.832Z,8.64
2022-12-23T08:21:20.853Z,8.92
2022-12-23T08:25:27.004Z,9.08
2022-12-23T08:29:36.247Z,9.16
2022-12-23T08:34:13.426Z,8.98
2022-12-23T08:38:22.242Z,9.09
2022-12-23T08:42:28.386Z,9.41
2022-12-23T08:46:31.617Z,9.33
2022-12-23T08:50:41.071Z,9.33
2022-12-23T08:54:45.100Z,9.33
2022-12-23T08:59:22.938Z,9.54
2022-12-23T09:03:26.304Z,9.46
2022-12-23T09:07:41.376Z,9.54
2022-12-23T09:11:51.181Z,9.70
2022-12-23T09:15:56.855Z,9.67
2022-12-23T09:20:00.658Z,9.58
2022-12-23T09:24:03.868Z,9.68
2022-12-23T09:28:08.063Z,9.79
2022-12-23T09:32:18.845Z,9.70
2022-12-23T09:36:31.402Z,9.72
2022-12-23T09:40:45.988Z,9.74
2022-12-23T09:45:12.875Z,9.75
2022-12-23T09:49:56.175Z,9.75
2022-12-23T09:54:22.326Z,9.77
2022-12-23T09:58:34.610Z,9.78
2022-12-23T10:02:46.991Z,9.60
2022-12-23T10:07:15.917Z,9.73
2022-12-23T10:16:57.926Z,9.74
2022-12-23T10:21:05.045Z,9.50
2022-12-23T10:25:35.000Z,9.68
2022-12-23T10:30:26.471Z,9.62
2022-12-23T10:34:58.721Z,9.77
2022-12-23T10:39:23.140Z,9.82
2022-12-23T10:43:43.561Z,9.71
2022-12-23T10:48:14.408Z,9.82
2022-12-23T10:52:39.512Z,10.07
2022-12-23T10:57:16.881Z,9.87
2022-12-23T11:01:41.679Z,10.22
2022-12-23T11:06:23.438Z,10.20
2022-12-23T11:10:41.032Z,10.15
2022-12-23T11:14:53.198Z,10.35
2022-12-23T11:19:07.395Z,10.09
2022-12-23T11:23:25.814Z,10.08
2022-12-23T11:27:31.008Z,10.44
2022-12-23T11:31:36.785Z,10.13
2022-12-23T11:35:43.856Z,10.36
2022-12-23T11:39:48.234Z,10.27
2022-12-23T11:44:06.718Z,10.23
2022-12-23T11:48:31.598Z,10.56
2022-12-23T11:52:35.399Z,10.49
2022-12-23T11:56:39.135Z,10.62
2022-12-23T12:00:55.568Z,10.67
2022-12-23T12:05:29.819Z,10.72
2022-12-23T12:09:47.705Z,10.74
2022-12-23T12:14:34.613Z,10.78
2022-12-23T12:18:52.050Z,10.74
2022-12-23T12:23:08.191Z,10.64
2022-12-23T12:27:31.937Z,10.66
2022-12-23T12:31:39.556Z,10.94
2022-12-23T12:36:00.255Z,11.09
2022-12-23T12:40:17.031Z,10.78
2022-12-23T12:44:40.033Z,10.82
2022-12-23T12:48:48.619Z,10.86
2022-12-23T12:52:55.373Z,11.26
2022-12-23T12:57:02.683Z,11.27
2022-12-23T13:01:21.353Z,11.18
2022-12-23T13:05:51.708Z,11.58
2022-12-23T13:10:15.637Z,11.56
2022-12-23T13:14:26.093Z,11.57
2022-12-23T13:18:37.713Z,11.43
2022-12-23T13:22:41.113Z,11.61
2022-12-23T13:26:56.741Z,11.69
2022-12-23T13:31:14.133Z,11.59
2022-12-23T13:35:39.602Z,11.97
2022-12-23T13:39:51.508Z,12.01
2022-12-23T13:44:00.561Z,12.05
2022-12-23T13:48:25.641Z,12.01
2022-12-23T13:52:54.619Z,12.07
2022-12-23T13:57:11.571Z,12.11
2022-12-23T14:01:37.054Z,12.05
2022-12-23T14:05:46.233Z,12.06
2022-12-23T14:10:01.054Z,12.03
2022-12-23T14:14:05.946Z,12.11
2022-12-23T14:19:02.418Z,11.97
2022-12-23T14:23:20.440Z,11.93
2022-12-23T14:27:55.664Z,12.06
2022-12-23T14:32:01.699Z,12.06
2022-12-23T14:36:34.483Z,12.03
2022-12-23T14:40:52.759Z,11.88
2022-12-23T14:45:10.005Z,12.17
2022-12-23T14:49:39.046Z,12.15
2022-12-23T14:54:20.608Z,12.14
2022-12-23T14:59:03.609Z,12.14
2022-12-23T15:03:14.903Z,11.91
2022-12-23T15:07:24.125Z,11.93
2022-12-23T15:11:30.218Z,11.98
2022-12-23T15:15:34.689Z,11.87
2022-12-23T15:19:46.126Z,12.10
2022-12-23T15:23:53.397Z,11.99
2022-12-23T15:28:08.732Z,12.03
2022-12-23T15:32:12.803Z,12.10
2022-12-23T15:36:42.111Z,11.98
2022-12-23T15:41:01.697Z,11.96
2022-12-23T15:45:46.643Z,12.01
2022-12-23T15:49:53.550Z,11.72
2022-12-23T15:54:04.470Z,11.93
2022-12-23T15:58:12.997Z,11.88
2022-12-23T16:07:08.503Z,11.85
2022-12-23T16:11:30.540Z,11.87
2022-12-23T16:15:49.513Z,11.96
2022-12-23T16:20:38.250Z,11.94
2022-12-23T16:25:01.414Z,11.78
2022-12-23T16:29:14.060Z,11.86
2022-12-23T16:33:49.524Z,11.83
2022-12-23T16:37:57.033Z,11.85
2022-12-23T16:42:01.176Z,11.76
2022-12-23T16:46:08.634Z,11.83
2022-12-23T16:50:19.375Z,11.86
2022-12-23T16:54:37.101Z,11.86
2022-12-23T16:58:59.592Z,11.81
2022-12-23T17:03:12.127Z,11.78
2022-12-23T17:07:45.452Z,11.98
2022-12-23T17:11:53.729Z,11.32
2022-12-23T17:16:09.257Z,11.19
2022-12-23T17:20:18.510Z,11.03
2022-12-23T17:24:29.132Z,11.00
2022-12-23T17:28:43.241Z,10.87
2022-12-23T17:32:50.294Z,10.61
2022-12-23T17:36:56.343Z,10.51
2022-12-23T17:41:00.396Z,10.82
2022-12-23T17:45:03.376Z,10.86
2022-12-23T17:49:06.780Z,10.84
2022-12-23T17:53:13.251Z,10.93
2022-12-23T17:57:20.243Z,10.79
2022-12-23T18:01:26.254Z,10.85
2022-12-23T18:05:31.502Z,10.90
2022-12-23T18:09:40.340Z,10.94
2022-12-23T18:13:43.801Z,10.84
2022-12-23T18:17:46.847Z,10.88
2022-12-23T18:21:53.189Z,10.80
2022-12-23T18:25:58.149Z,10.93
2022-12-23T18:30:00.903Z,10.90
2022-12-23T18:34:04.345Z,10.90
2022-12-23T18:38:07.863Z,10.86
2022-12-23T18:42:15.584Z,10.78
2022-12-23T18:46:20.405Z,10.57
2022-12-23T18:50:23.543Z,10.49
2022-12-23T18:54:28.633Z,10.47
2022-12-23T18:58:32.984Z,10.49
2022-12-23T19:02:37.399Z,10.23
2022-12-23T19:06:41.333Z,10.16
2022-12-23T19:10:50.088Z,9.99
2022-12-23T19:14:54.640Z,9.96
2022-12-23T19:18:59.654Z,9.91
2022-12-23T19:23:05.604Z,9.91
2022-12-23T19:27:11.153Z,9.88
2022-12-23T19:31:21.499Z,9.88
2022-12-23T19:35:30.549Z,9.65
2022-12-23T19:39:45.775Z,9.55
2022-12-23T19:43:56.800Z,9.24
2022-12-23T19:48:16.889Z,9.46
2022-12-23T19:52:42.229Z,9.66
2022-12-23T19:56:49.900Z,9.48
2022-12-23T20:01:17.875Z,9.50
2022-12-23T20:05:25.451Z,9.49
2022-12-23T20:09:50.145Z,9.65
2022-12-23T20:14:15.543Z,9.52
2022-12-23T20:18:30.341Z,9.67
2022-12-23T20:23:04.953Z,9.73
2022-12-23T20:27:33.148Z,9.89
2022-12-23T20:32:34.019Z,9.80
2022-12-23T20:36:42.683Z,9.98
2022-12-23T20:40:54.995Z,9.95
2022-12-23T20:45:06.016Z,10.22
2022-12-23T20:49:15.429Z,10.06
2022-12-23T20:53:29.494Z,10.01
2022-12-23T20:57:42.192Z,9.88
2022-12-23T21:01:46.744Z,9.92
2022-12-23T21:05:58.226Z,10.03
2022-12-23T21:10:06.654Z,9.81
2022-12-23T21:14:13.563Z,9.76
2022-12-23T21:18:20.744Z,9.62
2022-12-23T21:22:25.050Z,9.70
2022-12-23T21:26:31.493Z,9.76
2022-12-23T21:30:38.789Z,9.70
2022-12-23T21:34:43.400Z,9.72
2022-12-23T21:38:49.209Z,9.54
2022-12-23T21:42:57.312Z,9.79
2022-12-23T21:52:38.248Z,9.84
2022-12-23T21:56:49.533Z,10.10
2022-12-23T22:01:09.255Z,10.18
2022-12-23T22:05:14.387Z,9.94
2022-12-23T22:09:20.688Z,9.96
2022-12-23T22:13:24.153Z,9.63
2022-12-23T22:17:28.472Z,9.89
2022-12-23T22:21:37.691Z,9.95
2022-12-23T22:25:54.090Z,9.92
2022-12-23T22:29:59.163Z,9.71
2022-12-23T22:34:02.792Z,9.91
2022-12-23T22:38:26.447Z,9.81
2022-12-23T22:42:40.185Z,9.65
2022-12-23T22:46:43.469Z,9.85
2022-12-23T22:50:54.603Z,9.93
2022-12-23T22:55:22.896Z,9.92
2022-12-23T22:59:28.686Z,9.88
2022-12-23T23:03:32.082Z,9.68
2022-12-23T23:07:40.071Z,9.62
2022-12-23T23:11:46.932Z,9.60
2022-12-23T23:15:51.990Z,9.45
2022-12-23T23:19:55.398Z,9.43
2022-12-23T23:23:59.729Z,9.08
2022-12-23T23:28:07.869Z,9.35
2022-12-23T23:32:41.747Z,9.56
2022-12-23T23:36:44.829Z,9.37
2022-12-23T23:40:49.252Z,9.39
2022-12-23T23:44:53.957Z,9.62
2022-12-23T23:48:58.415Z,9.42
2022-12-23T23:53:01.442Z,9.36
2022-12-23T23:57:05.541Z,9.16
